createdAt,value
2018-03-22T00:00:25.000Z,73.40
2018-03-22T00:02:52.456Z,70.70
2018-03-22T00:05:20.685Z,76.70
2018-03-22T00:07:48.908Z,79.50
2018-03-22T00:10:16.364Z,79.40
2018-03-22T00:12:43.820Z,79.30
2018-03-22T00:15:11.277Z,78.50
2018-03-22T00:17:38.732Z,78.50
2018-03-22T00:20:06.192Z,75.50
2018-03-22T00:22:38.462Z,75.40
2018-03-22T00:25:05.921Z,71.40
2018-03-22T00:27:33.376Z,66.00
2018-03-22T00:30:00.832Z,61.50
2018-03-22T00:32:28.294Z,58.90
2018-03-22T00:34:55.714Z,57.70
2018-03-22T00:37:23.931Z,60.00
2018-03-22T00:39:51.380Z,60.00
2018-03-22T00:42:18.836Z,65.90
2018-03-22T00:44:46.297Z,66.70
2018-03-22T00:47:14.643Z,63.20
2018-03-22T00:49:42.846Z,56.50
2018-03-22T00:52:10.303Z,56.50
2018-03-22T00:54:37.757Z,56.50
2018-03-22T00:57:05.222Z,56.70
2018-03-22T00:59:32.688Z,60.80
2018-03-22T01:02:00.132Z,65.50
2018-03-22T01:04:27.587Z,64.00
2018-03-22T01:06:55.044Z,59.40
2018-03-22T01:09:22.499Z,56.70
2018-03-22T01:11:50.721Z,60.70
2018-03-22T01:14:18.173Z,60.90
2018-03-22T01:16:45.646Z,71.00
2018-03-22T01:19:13.107Z,73.70
2018-03-22T01:21:40.540Z,66.20
2018-03-22T01:24:07.997Z,59.20
2018-03-22T01:26:35.454Z,60.10
2018-03-22T01:29:02.918Z,67.40
2018-03-22T01:31:30.372Z,67.60
2018-03-22T01:33:57.827Z,70.30
2018-03-22T01:36:25.267Z,73.50
2018-03-22T01:38:52.723Z,78.80
2018-03-22T01:41:20.186Z,81.40
2018-03-22T01:43:47.631Z,72.90
2018-03-22T01:46:15.096Z,65.60
2018-03-22T01:48:42.555Z,64.90
2018-03-22T01:51:10.025Z,60.30
2018-03-22T01:53:37.484Z,61.30
2018-03-22T01:56:04.942Z,59.50
2018-03-22T01:58:32.401Z,59.10
2018-03-22T02:00:59.867Z,58.40
2018-03-22T02:03:27.316Z,57.80
2018-03-22T02:05:54.772Z,59.20
2018-03-22T02:08:22.211Z,62.10
2018-03-22T02:10:49.656Z,65.40
2018-03-22T02:13:17.107Z,65.30
2018-03-22T02:15:44.563Z,68.00
2018-03-22T02:18:12.018Z,67.00
2018-03-22T02:20:39.446Z,64.00
2018-03-22T02:23:06.892Z,62.30
2018-03-22T02:25:35.132Z,64.10
2018-03-22T02:28:02.588Z,64.10
2018-03-22T02:30:30.049Z,62.30
2018-03-22T02:32:57.514Z,61.10
2018-03-22T02:35:24.989Z,60.20
2018-03-22T02:37:52.433Z,64.00
2018-03-22T02:40:19.881Z,66.30
2018-03-22T02:42:47.420Z,61.30
2018-03-22T02:45:14.804Z,70.10
2018-03-22T02:47:42.260Z,76.00
2018-03-22T02:50:09.724Z,80.30
2018-03-22T02:52:37.177Z,77.10
2018-03-22T02:55:04.616Z,80.00
2018-03-22T02:57:32.068Z,72.50
2018-03-22T02:59:59.512Z,69.40
2018-03-22T03:02:26.965Z,64.20
2018-03-22T03:04:55.173Z,60.70
2018-03-22T03:07:22.607Z,60.50
2018-03-22T03:09:50.059Z,59.70
2018-03-22T03:12:17.511Z,60.50
2018-03-22T03:14:44.972Z,63.60
2018-03-22T03:17:12.409Z,64.10
2018-03-22T03:19:39.864Z,63.10
2018-03-22T03:22:07.303Z,60.90
2018-03-22T03:24:35.516Z,67.50
2018-03-22T03:27:02.960Z,67.60
2018-03-22T03:29:30.408Z,65.20
2018-03-22T03:31:57.865Z,65.50
2018-03-22T03:34:25.315Z,64.10
2018-03-22T03:36:53.519Z,70.00
2018-03-22T03:39:20.983Z,70.10
2018-03-22T03:41:48.431Z,76.20
2018-03-22T03:44:15.880Z,75.70
2018-03-22T03:46:43.339Z,80.80
2018-03-22T03:49:10.811Z,79.40
2018-03-22T03:51:38.251Z,75.50
2018-03-22T03:54:05.689Z,68.40
2018-03-22T03:56:33.923Z,73.50
2018-03-22T03:59:01.356Z,73.70
2018-03-22T04:01:28.803Z,74.70
2018-03-22T04:03:56.255Z,75.70
2018-03-22T04:06:23.706Z,80.50
2018-03-22T04:08:51.149Z,83.00
2018-03-22T04:11:19.362Z,84.60
2018-03-22T04:13:46.803Z,84.50
2018-03-22T04:16:14.248Z,81.50
2018-03-22T04:18:41.701Z,83.40
2018-03-22T04:21:09.168Z,84.10
2018-03-22T04:23:36.612Z,85.70
2018-03-22T04:26:04.070Z,85.10
2018-03-22T04:28:31.512Z,85.60
2018-03-22T04:30:59.735Z,80.10
2018-03-22T04:33:27.175Z,80.10
2018-03-22T04:35:54.629Z,75.00
2018-03-22T04:38:22.071Z,74.50
2018-03-22T04:40:49.518Z,74.30
2018-03-22T04:43:16.963Z,71.00
2018-03-22T04:45:44.403Z,76.90
2018-03-22T04:48:11.851Z,80.50
2018-03-22T04:50:39.297Z,82.00
2018-03-22T04:53:06.764Z,79.10
2018-03-22T04:55:34.219Z,75.20
2018-03-22T04:58:01.667Z,68.90
2018-03-22T05:00:29.125Z,69.20
2018-03-22T05:02:56.572Z,67.00
2018-03-22T05:05:24.009Z,66.60
2018-03-22T05:07:51.460Z,70.40
2018-03-22T05:10:18.908Z,72.80
2018-03-22T05:12:46.366Z,77.50
2018-03-22T05:15:14.571Z,82.10
2018-03-22T05:17:42.033Z,82.30
2018-03-22T05:20:10.239Z,74.10
2018-03-22T05:22:37.683Z,74.00
2018-03-22T05:25:05.143Z,72.10
2018-03-22T05:27:32.608Z,71.10
2018-03-22T05:30:00.051Z,73.40
2018-03-22T05:32:27.495Z,77.00
2018-03-22T05:34:54.939Z,76.00
2018-03-22T05:37:23.157Z,74.90
2018-03-22T05:39:50.620Z,74.80
2018-03-22T05:42:18.042Z,75.30
2018-03-22T05:44:45.493Z,72.60
2018-03-22T05:47:12.940Z,75.30
2018-03-22T05:49:40.408Z,77.00
2018-03-22T05:52:07.835Z,74.90
2018-03-22T05:54:35.292Z,74.40
2018-03-22T05:57:03.576Z,71.30
2018-03-22T05:59:31.028Z,70.40
2018-03-22T06:01:58.476Z,72.10
2018-03-22T06:04:26.701Z,70.80
2018-03-22T06:06:54.145Z,70.10
2018-03-22T06:09:21.603Z,69.10
2018-03-22T06:11:49.060Z,69.30
2018-03-22T06:14:16.517Z,70.70
2018-03-22T06:16:43.975Z,69.30
2018-03-22T06:19:11.431Z,67.00
2018-03-22T06:21:38.872Z,65.50
2018-03-22T06:24:06.352Z,64.60
2018-03-22T06:26:33.801Z,68.20
2018-03-22T06:29:01.266Z,67.80
2018-03-22T06:31:28.723Z,68.10
2018-03-22T06:33:56.175Z,65.90
2018-03-22T06:36:23.633Z,66.60
2018-03-22T06:38:51.058Z,64.80
2018-03-22T06:41:18.545Z,64.50
2018-03-22T06:43:46.719Z,63.60
2018-03-22T06:46:14.938Z,63.30
2018-03-22T06:48:42.387Z,63.20
2018-03-22T06:51:09.877Z,63.40
2018-03-22T06:53:37.316Z,63.40
2018-03-22T06:56:05.531Z,63.80
2018-03-22T06:58:32.971Z,63.70
2018-03-22T07:01:00.423Z,64.50
2018-03-22T07:03:27.865Z,63.70
2018-03-22T07:05:56.080Z,65.30
2018-03-22T07:08:23.529Z,65.20
2018-03-22T07:10:50.971Z,65.60
2018-03-22T07:13:18.415Z,67.30
2018-03-22T07:15:46.639Z,63.90
2018-03-22T07:18:14.076Z,63.80
2018-03-22T07:20:41.524Z,63.00
2018-03-22T07:23:08.971Z,61.80
2018-03-22T07:25:36.415Z,61.80
2018-03-22T07:28:04.642Z,63.20
2018-03-22T07:30:32.100Z,63.20
2018-03-22T07:32:59.568Z,62.00
2018-03-22T07:35:27.012Z,62.40
2018-03-22T07:37:54.483Z,62.20
2018-03-22T07:40:21.928Z,60.00
2018-03-22T07:42:54.991Z,60.20
2018-03-22T07:45:22.437Z,60.20
2018-03-22T07:47:49.909Z,59.80
2018-03-22T07:50:17.347Z,59.20
2018-03-22T07:52:44.803Z,59.60
2018-03-22T07:55:12.250Z,59.20
2018-03-22T07:57:40.520Z,58.80
2018-03-22T08:00:08.755Z,59.40
2018-03-22T08:02:36.206Z,59.30
2018-03-22T08:05:03.668Z,58.00
2018-03-22T08:07:31.123Z,57.80
2018-03-22T08:09:58.581Z,57.60
2018-03-22T08:12:26.072Z,59.50
2018-03-22T08:14:53.463Z,58.50
2018-03-22T08:17:20.933Z,59.20
2018-03-22T08:19:48.375Z,61.30
2018-03-22T08:22:15.823Z,60.60
2018-03-22T08:24:43.321Z,61.50
2018-03-22T08:27:10.763Z,62.00
2018-03-22T08:29:38.241Z,62.20
2018-03-22T08:32:05.693Z,62.90
2018-03-22T08:34:33.159Z,63.00
2018-03-22T08:37:00.609Z,63.00
2018-03-22T08:39:28.064Z,63.40
2018-03-22T08:41:55.523Z,63.30
2018-03-22T08:44:22.979Z,63.60
2018-03-22T08:46:50.436Z,65.10
2018-03-22T08:49:17.894Z,65.30
2018-03-22T08:51:45.352Z,67.40
2018-03-22T08:54:12.803Z,66.50
2018-03-22T08:56:40.267Z,66.60
2018-03-22T08:59:07.724Z,66.50
2018-03-22T09:01:35.192Z,67.50
2018-03-22T09:04:02.636Z,67.40
2018-03-22T09:06:30.107Z,67.40
2018-03-22T09:08:57.565Z,67.30
2018-03-22T09:11:25.028Z,68.10
2018-03-22T09:13:52.475Z,69.30
2018-03-22T09:16:19.963Z,72.50
2018-03-22T09:18:48.193Z,76.90
2018-03-22T09:21:15.656Z,76.90
2018-03-22T09:23:43.112Z,77.00
2018-03-22T09:26:10.580Z,77.30
2018-03-22T09:28:38.041Z,76.70
2018-03-22T09:31:05.498Z,75.20
2018-03-22T09:33:32.947Z,75.50
2018-03-22T09:36:00.410Z,76.10
2018-03-22T09:38:27.859Z,77.00
2018-03-22T09:40:55.308Z,77.90
2018-03-22T09:43:22.787Z,77.30
2018-03-22T09:45:50.275Z,76.70
2018-03-22T09:48:18.500Z,79.70
2018-03-22T09:50:45.956Z,79.70
2018-03-22T09:53:13.416Z,80.60
2018-03-22T09:55:40.884Z,81.80
2018-03-22T09:58:08.333Z,83.10
2018-03-22T10:00:35.784Z,84.00
2018-03-22T10:03:03.242Z,85.30
2018-03-22T10:05:30.696Z,85.00
2018-03-22T10:07:58.158Z,86.10
2018-03-22T10:10:25.614Z,86.10
2018-03-22T10:12:53.088Z,86.10
2018-03-22T10:15:20.542Z,87.20
2018-03-22T10:17:48.000Z,88.60
2018-03-22T10:20:15.456Z,90.00
2018-03-22T10:22:42.919Z,91.00
2018-03-22T10:25:10.404Z,90.90
2018-03-22T10:27:38.647Z,91.90
2018-03-22T10:30:06.123Z,91.90
2018-03-22T10:32:34.358Z,92.20
2018-03-22T10:35:01.833Z,92.10
2018-03-22T10:37:29.282Z,92.70
2018-03-22T10:39:56.740Z,92.60
2018-03-22T10:42:24.194Z,92.30
2018-03-22T10:44:51.647Z,92.60
2018-03-22T10:47:19.115Z,91.10
2018-03-22T10:49:46.579Z,91.50
2018-03-22T10:52:14.069Z,91.10
2018-03-22T10:54:42.315Z,91.20
2018-03-22T10:57:09.763Z,91.20
2018-03-22T10:59:37.230Z,92.10
2018-03-22T11:02:04.681Z,92.60
2018-03-22T11:04:32.139Z,92.60
2018-03-22T11:06:59.608Z,93.20
2018-03-22T11:09:27.063Z,93.20
2018-03-22T11:11:54.511Z,93.50
2018-03-22T11:14:21.981Z,93.30
2018-03-22T11:16:49.440Z,93.70
2018-03-22T11:19:16.916Z,93.40
2018-03-22T11:21:45.145Z,93.40
2018-03-22T11:24:12.609Z,93.40
2018-03-22T11:26:40.063Z,93.40
2018-03-22T11:29:07.511Z,94.00
2018-03-22T11:31:34.983Z,93.80
2018-03-22T11:34:02.443Z,93.40
2018-03-22T11:36:29.938Z,93.50
2018-03-22T11:38:57.407Z,93.90
2018-03-22T11:41:24.867Z,94.30
2018-03-22T11:43:52.304Z,94.10
2018-03-22T11:46:19.771Z,93.60
2018-03-22T11:48:47.251Z,93.10
2018-03-22T11:51:14.771Z,92.80
2018-03-22T11:53:42.285Z,93.20
2018-03-22T11:56:09.673Z,92.50
2018-03-22T11:58:37.128Z,92.50
2018-03-22T12:01:04.585Z,92.80
2018-03-22T12:03:32.031Z,92.40
2018-03-22T12:05:59.498Z,92.80
2018-03-22T12:08:26.943Z,92.60
2018-03-22T12:10:54.407Z,92.70
2018-03-22T12:13:21.861Z,92.70
2018-03-22T12:15:49.344Z,93.40
2018-03-22T12:18:16.797Z,93.50
2018-03-22T12:20:44.252Z,93.90
2018-03-22T12:23:11.707Z,93.40
2018-03-22T12:25:39.168Z,93.80
2018-03-22T12:28:06.637Z,93.50
2018-03-22T12:30:34.116Z,93.60
2018-03-22T12:33:01.576Z,94.10
2018-03-22T12:35:29.797Z,94.00
2018-03-22T12:37:57.256Z,94.00
2018-03-22T12:40:24.716Z,93.90
2018-03-22T12:42:52.188Z,94.10
2018-03-22T12:45:19.636Z,94.30
2018-03-22T12:47:47.095Z,94.50
2018-03-22T12:50:14.560Z,94.40
2018-03-22T12:52:42.011Z,94.40
2018-03-22T12:55:09.470Z,94.90
2018-03-22T12:57:36.932Z,94.40
2018-03-22T13:00:04.435Z,94.60
2018-03-22T13:02:31.851Z,94.40
2018-03-22T13:04:59.295Z,94.90
2018-03-22T13:07:26.769Z,95.10
2018-03-22T13:09:54.223Z,95.20
2018-03-22T13:12:21.692Z,95.40
2018-03-22T13:14:49.143Z,95.60
2018-03-22T13:17:17.517Z,95.10
2018-03-22T13:19:44.976Z,95.10
2018-03-22T13:22:12.443Z,95.10
2018-03-22T13:24:40.679Z,95.10
2018-03-22T13:27:08.139Z,95.00
2018-03-22T13:29:35.628Z,95.00
2018-03-22T13:32:03.103Z,94.70
2018-03-22T13:34:31.327Z,94.90
2018-03-22T13:36:58.783Z,94.90
2018-03-22T13:39:26.267Z,94.70
2018-03-22T13:41:53.724Z,95.10
2018-03-22T13:44:21.211Z,94.90
2018-03-22T13:46:49.448Z,94.90
2018-03-22T13:49:16.964Z,94.90
2018-03-22T13:51:44.408Z,94.70
2018-03-22T13:54:11.864Z,95.10
2018-03-22T13:56:39.326Z,95.20
2018-03-22T13:59:06.767Z,95.20
2018-03-22T14:01:35.024Z,95.00
2018-03-22T14:04:02.479Z,95.00
2018-03-22T14:06:29.964Z,95.00
2018-03-22T14:08:57.407Z,94.70
2018-03-22T14:11:25.648Z,95.00
2018-03-22T14:13:53.103Z,95.00
2018-03-22T14:16:20.582Z,95.00
2018-03-22T14:18:48.031Z,95.60
2018-03-22T14:21:15.496Z,95.20
2018-03-22T14:23:42.975Z,95.90
2018-03-22T14:26:10.447Z,95.70
2018-03-22T14:28:37.909Z,95.40
2018-03-22T14:31:05.372Z,95.00
2018-03-22T14:33:32.814Z,95.30
2018-03-22T14:36:00.271Z,95.00
2018-03-22T14:38:28.492Z,95.30
2018-03-22T14:40:55.952Z,95.30
2018-03-22T14:43:23.408Z,95.30
2018-03-22T14:45:50.868Z,95.30
2018-03-22T14:48:18.324Z,95.40
2018-03-22T14:50:45.778Z,95.10
2018-03-22T14:53:13.241Z,95.30
2018-03-22T14:55:40.693Z,95.00
2018-03-22T14:58:08.151Z,95.30
2018-03-22T15:00:35.621Z,95.20
2018-03-22T15:03:03.083Z,95.10
2018-03-22T15:05:30.540Z,95.00
2018-03-22T15:07:58.003Z,95.60
2018-03-22T15:10:25.491Z,94.80
2018-03-22T15:12:52.920Z,95.30
2018-03-22T15:15:20.368Z,95.40
2018-03-22T15:17:47.843Z,95.40
2018-03-22T15:20:15.287Z,95.30
2018-03-22T15:22:42.751Z,95.70
2018-03-22T15:25:10.968Z,96.20
2018-03-22T15:27:38.424Z,95.90
2018-03-22T15:30:05.879Z,96.30
2018-03-22T15:32:33.336Z,96.30
2018-03-22T15:35:00.776Z,96.30
2018-03-22T15:37:28.220Z,96.40
2018-03-22T15:39:56.500Z,96.40
2018-03-22T15:42:23.932Z,96.40
2018-03-22T15:44:51.408Z,96.20
2018-03-22T15:47:18.852Z,96.50
2018-03-22T15:49:46.316Z,96.90
2018-03-22T15:52:13.779Z,97.60
2018-03-22T15:54:42.004Z,99.20
2018-03-22T15:57:09.460Z,99.20
2018-03-22T15:59:36.923Z,99.00
2018-03-22T16:02:04.380Z,99.10
2018-03-22T16:04:31.832Z,98.30
2018-03-22T16:06:59.287Z,98.30
2018-03-22T16:09:26.743Z,98.70
2018-03-22T16:11:54.224Z,98.40
2018-03-22T16:14:21.691Z,98.30
2018-03-22T16:16:49.156Z,98.30
2018-03-22T16:19:16.612Z,98.20
2018-03-22T16:21:44.066Z,98.00
2018-03-22T16:24:11.532Z,98.00
2018-03-22T16:26:38.996Z,98.10
2018-03-22T16:29:06.451Z,97.60
2018-03-22T16:31:33.908Z,97.60
2018-03-22T16:34:01.368Z,98.20
2018-03-22T16:36:29.600Z,98.00
2018-03-22T16:38:57.047Z,98.00
2018-03-22T16:41:24.516Z,97.10
2018-03-22T16:43:51.989Z,97.60
2018-03-22T16:46:19.447Z,97.70
2018-03-22T16:48:46.903Z,97.70
2018-03-22T16:51:14.368Z,97.80
2018-03-22T16:53:41.827Z,98.10
2018-03-22T16:56:09.284Z,97.60
2018-03-22T16:58:36.733Z,97.50
2018-03-22T17:01:04.189Z,97.60
2018-03-22T17:03:31.646Z,98.00
2018-03-22T17:05:59.115Z,98.00
2018-03-22T17:08:26.572Z,98.00
2018-03-22T17:10:54.045Z,97.90
2018-03-22T17:13:21.499Z,98.00
2018-03-22T17:15:48.952Z,97.80
2018-03-22T17:18:16.414Z,98.00
2018-03-22T17:20:44.982Z,98.40
2018-03-22T17:23:12.444Z,98.20
2018-03-22T17:25:39.899Z,98.30
2018-03-22T17:28:07.367Z,98.20
2018-03-22T17:30:34.817Z,98.10
2018-03-22T17:33:02.286Z,97.70
2018-03-22T17:35:29.728Z,97.30
2018-03-22T17:37:57.201Z,97.20
2018-03-22T17:40:24.664Z,97.20
2018-03-22T17:42:52.138Z,97.40
2018-03-22T17:45:19.629Z,97.50
2018-03-22T17:47:47.093Z,97.60
2018-03-22T17:50:14.589Z,97.50
2018-03-22T17:52:42.073Z,97.60
2018-03-22T17:55:09.564Z,97.60
2018-03-22T17:57:37.069Z,97.60
2018-03-22T18:00:04.520Z,97.60
2018-03-22T18:02:32.769Z,97.60
2018-03-22T18:05:00.254Z,97.60
2018-03-22T18:07:28.484Z,97.90
2018-03-22T18:09:55.972Z,97.90
2018-03-22T18:12:23.432Z,97.90
2018-03-22T18:14:50.981Z,97.90
2018-03-22T18:17:18.443Z,97.80
2018-03-22T18:19:45.908Z,97.90
2018-03-22T18:22:13.430Z,98.00
2018-03-22T18:24:40.937Z,98.10
2018-03-22T18:27:09.184Z,98.10
2018-03-22T18:29:36.641Z,98.10
2018-03-22T18:32:04.109Z,98.10
2018-03-22T18:34:31.544Z,97.90
2018-03-22T18:36:59.012Z,97.90
2018-03-22T18:39:26.463Z,97.90
2018-03-22T18:41:53.931Z,98.10
2018-03-22T18:44:21.388Z,98.10
2018-03-22T18:46:48.840Z,98.10
2018-03-22T18:49:16.292Z,98.00
2018-03-22T18:51:43.740Z,98.10
2018-03-22T18:54:11.187Z,98.00
2018-03-22T18:56:38.687Z,98.10
2018-03-22T18:59:06.132Z,98.10
2018-03-22T19:01:33.587Z,98.10
2018-03-22T19:04:01.056Z,98.20
2018-03-22T19:06:28.514Z,98.00
2018-03-22T19:08:55.971Z,98.20
2018-03-22T19:11:23.429Z,98.40
2018-03-22T19:13:50.903Z,98.50
2018-03-22T19:16:18.355Z,98.40
2018-03-22T19:18:45.838Z,98.40
2018-03-22T19:21:14.112Z,98.50
2018-03-22T19:23:42.336Z,98.60
2018-03-22T19:26:09.798Z,98.60
2018-03-22T19:28:37.252Z,98.30
2018-03-22T19:31:04.729Z,98.30
2018-03-22T19:33:32.190Z,98.30
2018-03-22T19:35:59.626Z,98.50
2018-03-22T19:38:27.120Z,98.30
2018-03-22T19:40:55.333Z,98.00
2018-03-22T19:43:22.816Z,98.00
2018-03-22T19:45:50.255Z,97.80
2018-03-22T19:48:17.724Z,97.70
2018-03-22T19:50:45.188Z,97.80
2018-03-22T19:53:12.640Z,97.80
2018-03-22T19:55:40.083Z,97.70
2018-03-22T19:58:07.544Z,97.90
2018-03-22T20:00:34.996Z,97.90
2018-03-22T20:03:02.455Z,98.00
2018-03-22T20:05:29.926Z,98.10
2018-03-22T20:07:57.381Z,98.00
2018-03-22T20:10:24.825Z,98.00
2018-03-22T20:12:52.291Z,98.00
2018-03-22T20:15:19.772Z,98.20
2018-03-22T20:17:47.219Z,98.20
2018-03-22T20:20:14.676Z,98.20
2018-03-22T20:22:42.178Z,98.30
2018-03-22T20:25:09.649Z,97.80
2018-03-22T20:27:37.139Z,98.10
2018-03-22T20:30:04.608Z,97.90
2018-03-22T20:32:32.064Z,97.90
2018-03-22T20:34:59.536Z,98.00
2018-03-22T20:37:26.979Z,98.10
2018-03-22T20:39:54.446Z,98.10
2018-03-22T20:42:21.897Z,98.30
2018-03-22T20:44:49.355Z,98.50
2018-03-22T20:47:16.808Z,98.30
2018-03-22T20:49:44.291Z,98.50
2018-03-22T20:52:12.525Z,98.50
2018-03-22T20:54:39.980Z,98.50
2018-03-22T20:57:07.432Z,98.30
2018-03-22T20:59:34.892Z,98.50
2018-03-22T21:02:02.340Z,98.50
2018-03-22T21:04:29.801Z,98.50
2018-03-22T21:06:57.291Z,98.50
2018-03-22T21:09:24.809Z,98.40
2018-03-22T21:11:52.195Z,98.60
2018-03-22T21:14:19.652Z,99.00
2018-03-22T21:16:47.103Z,98.10
2018-03-22T21:19:14.590Z,98.30
2018-03-22T21:21:42.044Z,98.50
2018-03-22T21:24:09.506Z,98.50
2018-03-22T21:26:37.769Z,99.00
2018-03-22T21:29:05.256Z,98.70
2018-03-22T21:31:32.751Z,98.80
2018-03-22T21:34:00.208Z,98.80
2018-03-22T21:36:27.684Z,99.00
2018-03-22T21:38:55.148Z,98.90
2018-03-22T21:41:22.656Z,98.80
2018-03-22T21:44:01.812Z,98.90
2018-03-22T21:46:30.067Z,98.80
2018-03-22T21:48:57.545Z,98.80
2018-03-22T21:51:25.035Z,98.80
2018-03-22T21:53:52.488Z,99.10
2018-03-22T21:56:19.952Z,99.10
2018-03-22T21:58:47.444Z,99.00
2018-03-22T22:01:14.930Z,99.00
2018-03-22T22:03:42.425Z,99.00
2018-03-22T22:06:09.922Z,99.00
2018-03-22T22:08:37.402Z,99.00
2018-03-22T22:11:04.897Z,99.20
2018-03-22T22:13:32.356Z,99.20
2018-03-22T22:15:59.828Z,99.50
2018-03-22T22:18:28.044Z,99.30
2018-03-22T22:20:55.508Z,99.10
2018-03-22T22:23:22.997Z,99.10
2018-03-22T22:25:50.492Z,99.30
2018-03-22T22:28:18.744Z,99.30
2018-03-22T22:30:46.246Z,99.30
2018-03-22T22:33:13.760Z,99.30
2018-03-22T22:35:41.254Z,99.10
2018-03-22T22:38:08.721Z,99.00
2018-03-22T22:40:36.214Z,99.20
2018-03-22T22:43:03.699Z,99.30
2018-03-22T22:45:31.196Z,99.20
2018-03-22T22:47:58.676Z,99.20
2018-03-22T22:50:26.162Z,99.20
2018-03-22T22:52:53.623Z,99.20
2018-03-22T22:55:21.111Z,99.30
2018-03-22T22:57:48.581Z,99.40
2018-03-22T23:00:16.064Z,99.50
2018-03-22T23:02:43.524Z,99.50
2018-03-22T23:05:11.032Z,99.60
2018-03-22T23:07:39.284Z,99.20
2018-03-22T23:10:06.781Z,99.20
2018-03-22T23:12:34.252Z,99.20
2018-03-22T23:15:01.732Z,99.20
2018-03-22T23:17:29.205Z,99.20
2018-03-22T23:19:56.731Z,99.20
2018-03-22T23:22:24.192Z,99.30
2018-03-22T23:24:51.655Z,99.30
2018-03-22T23:27:19.099Z,99.50
2018-03-22T23:29:46.551Z,99.50
2018-03-22T23:32:14.015Z,99.50
2018-03-22T23:34:41.478Z,99.30
2018-03-22T23:37:08.923Z,99.30
2018-03-22T23:39:36.367Z,99.40
2018-03-22T23:42:03.824Z,99.70
2018-03-22T23:44:31.299Z,99.10
2018-03-22T23:46:58.764Z,99.30
2018-03-22T23:49:26.213Z,99.50
2018-03-22T23:51:53.678Z,99.40
2018-03-22T23:54:21.119Z,99.40
2018-03-22T23:56:48.579Z,99.40
2018-03-22T23:59:16.036Z,99.30
